KRDK

Red Oak Municipal Airport

Red Oak, Iowa, USA
METAR KRDK 151555Z AUTO 00000KT 9SM CLR M03/M05 A3021 RMK AO2
Observed Flight Rules
Dec-15 @ 15:55 UTC (9 minutes ago) Visual Flight Rules
Visibility Clouds
9 miles
  • Clear skies
Temperatures Readings
Current -3°C / 27°F
Dewpoint -5°C / 23°F
Humidity 86%
Altimeter 30.21" Hg
Pressure 1023 hPa
Elevation 318
METAR KRDK 151555Z AUTO 00000KT 9SM CLR M03/M05 A3021 RMK AO2
Observed Flight Rules
Dec-15 @ 15:55 UTC
(9 minutes ago)
VFR
Clouds
  • Clear skies
Temperature Dewpoint
-3°C / 27°F -5°C / 23°F
Humidity Altimeter Pressure
86% 30.21" Hg 1023 hPa